Terminal Aerodrome Forecast
Issued by NWS Charleston, WV

Home | Current Version | Previous Version | Text Only | Print | Product List | Glossary On
Versions: 1 2 3 4 5 6 7 8 9 10 11 12 13 14 15 16 17 18 19 20 21 22 23 24 25
000
FTUS41 KRLX 270500 RRA
TAFEKN
TAF
KEKN 270544Z 2706/2806 31007KT 3SM -SN OVC025
      TEMPO 2706/2710 2SM -SN BKN012
     FM271000 31006KT 4SM -SN OVC025
     FM271200 31005KT 6SM -SN BKN030
     FM271300 30005KT P6SM BKN035
     FM271600 30006KT P6SM BKN025
     FM272300 00000KT P6SM SCT030
     FM280400 00000KT P6SM BKN200=

USA.gov is the U.S. government's official web portal to all federal, state and local government web resources and services.